Time;durP1;ratioP1;P1;durP2;ratioP2;P2;SDS_P1;SDS_P2;PMS_P1;PMS_P2;Temp;Humidity;BMP_temperature;BMP_pressure;BME280_temperature;BME280_humidity;BME280_pressure;Samples;Min_cycle;Max_cycle;Signal;HPM_P1;HPM_P2
2022/11/30 00:01:15;;;;;;;15.53;12.90;;;5.30;97.40;;;5.09;86.92;98266.19;5029108;28;20453;-68
2022/11/30 00:03:42;;;;;;;15.10;12.83;;;5.30;97.40;;;5.03;87.13;98261.56;5020802;28;20470;-68
2022/11/30 00:06:12;;;;;;;15.17;12.70;;;5.30;97.60;;;5.25;87.02;98268.81;5023187;28;20512;-68
2022/11/30 00:08:39;;;;;;;13.80;11.93;;;5.30;97.30;;;5.07;86.47;98265.56;5028429;28;20940;-67
2022/11/30 00:11:12;;;;;;;15.60;12.70;;;5.30;96.50;;;4.88;86.59;98242.69;5027403;28;20469;-67
2022/11/30 00:13:39;;;;;;;14.37;12.03;;;5.20;95.70;;;4.72;87.15;98265.00;5028852;28;20489;-68
2022/11/30 00:16:08;;;;;;;14.73;12.83;;;5.10;95.20;;;4.76;87.94;98259.13;5042338;28;20450;-67
2022/11/30 00:18:37;;;;;;;15.90;12.30;;;5.00;96.30;;;4.90;87.11;98259.41;5026356;28;20540;-67
2022/11/30 00:21:07;;;;;;;13.30;11.90;;;5.10;97.70;;;4.76;86.15;98248.41;5024579;28;20446;-68
2022/11/30 00:23:36;;;;;;;15.70;12.13;;;5.10;95.70;;;4.54;86.61;98232.09;5032057;28;20473;-66
2022/11/30 00:26:05;;;;;;;15.30;12.50;;;5.00;95.50;;;4.80;87.21;98257.78;5046183;28;20446;-67
2022/11/30 00:28:35;;;;;;;13.67;11.90;;;5.00;96.00;;;4.91;85.87;98255.72;5030281;28;20655;-68
2022/11/30 00:31:05;;;;;;;14.00;11.93;;;5.00;96.70;;;4.81;86.88;98251.41;5021078;28;20981;-67
2022/11/30 00:33:34;;;;;;;14.10;11.90;;;5.00;95.70;;;4.62;86.60;98260.69;5028995;28;20462;-67
2022/11/30 00:36:05;;;;;;;13.90;11.17;;;4.90;94.50;;;4.57;86.16;98267.53;5029869;28;20440;-67
2022/11/30 00:38:33;;;;;;;16.53;12.93;;;4.90;94.90;;;4.54;87.33;98258.00;5027569;28;20461;-67
2022/11/30 00:41:00;;;;;;;15.20;12.00;;;4.80;95.40;;;4.49;86.56;98258.53;5026246;28;20468;-67
2022/11/30 00:43:28;;;;;;;18.37;12.73;;;4.80;95.30;;;4.19;86.37;98198.56;5044911;28;20466;-68
2022/11/30 00:45:55;;;;;;;13.77;11.97;;;4.90;95.70;;;4.70;86.36;98270.53;5035311;28;20462;-67
2022/11/30 00:48:23;;;;;;;16.60;12.97;;;4.90;96.00;;;4.62;87.04;98279.41;5024789;28;20934;-68
2022/11/30 00:50:51;;;;;;;17.87;13.87;;;4.80;96.80;;;4.56;85.83;98263.19;5037174;28;20465;-68
2022/11/30 00:53:20;;;;;;;14.30;12.80;;;4.80;95.70;;;4.34;86.89;98281.63;5025796;28;20466;-67
2022/11/30 00:55:48;;;;;;;14.60;11.50;;;4.80;94.90;;;4.41;86.85;98276.44;5024648;28;20845;-67
2022/11/30 00:58:16;;;;;;;14.60;13.10;;;4.70;95.00;;;4.50;86.91;98270.06;5017376;28;20457;-67
2022/11/30 01:00:44;;;;;;;14.67;11.57;;;4.80;95.50;;;4.54;86.92;98274.91;5025458;28;20473;-68
2022/11/30 01:03:11;;;;;;;18.80;13.50;;;4.70;95.60;;;4.44;86.71;98276.09;5022118;28;20479;-68
2022/11/30 01:05:40;;;;;;;16.23;13.10;;;4.70;95.10;;;4.46;86.71;98279.44;5028100;28;20803;-67
2022/11/30 01:08:10;;;;;;;19.67;14.50;;;4.70;95.60;;;4.47;86.51;98271.22;5042565;28;20443;-68
2022/11/30 01:10:42;;;;;;;15.80;13.73;;;4.70;96.10;;;4.47;85.95;98281.94;5025399;28;20457;-68
2022/11/30 01:13:11;;;;;;;16.87;13.07;;;4.70;95.50;;;4.45;87.01;98281.28;5022352;28;20532;-67
2022/11/30 01:15:44;;;;;;;18.10;13.77;;;4.70;95.90;;;4.50;87.54;98289.63;5025724;28;20512;-67
2022/11/30 01:18:11;;;;;;;18.43;13.20;;;4.70;95.80;;;4.59;86.92;98300.31;5024323;28;20454;-67
2022/11/30 01:20:41;;;;;;;17.07;13.93;;;4.80;96.60;;;4.51;87.91;98304.69;5026886;28;20509;-68
2022/11/30 01:23:10;;;;;;;20.03;14.90;;;4.80;97.00;;;4.38;87.60;98302.50;5027323;28;20457;-71
2022/11/30 01:25:39;;;;;;;19.30;14.73;;;4.70;96.80;;;4.31;87.76;98298.00;5028808;28;20515;-67
2022/11/30 01:28:06;;;;;;;20.40;14.70;;;4.70;97.10;;;4.25;88.71;98299.53;5028074;28;20448;-66
2022/11/30 01:30:34;;;;;;;18.80;14.73;;;4.60;97.90;;;4.24;88.59;98298.69;5028070;28;20457;-67
2022/11/30 01:33:03;;;;;;;18.53;14.40;;;4.60;98.60;;;4.20;88.69;98275.97;5029151;28;20476;-68
2022/11/30 01:35:30;;;;;;;19.13;14.87;;;4.60;98.60;;;4.44;87.80;98290.31;5021864;28;20442;-68
2022/11/30 01:37:57;;;;;;;18.53;14.43;;;4.60;99.30;;;4.49;88.06;98293.31;5022061;28;20489;-68
2022/11/30 01:40:24;;;;;;;20.47;15.57;;;4.70;98.20;;;4.64;87.25;98296.13;5025013;28;20860;-70
2022/11/30 01:42:54;;;;;;;20.40;16.20;;;4.70;98.10;;;4.51;87.04;98283.28;5023575;28;20461;-68
2022/11/30 01:45:21;;;;;;;18.93;15.40;;;4.70;96.90;;;4.29;87.40;98283.97;5023759;28;20458;-69
2022/11/30 01:47:54;;;;;;;20.10;14.83;;;4.70;96.30;;;4.31;87.53;98288.16;5025881;28;20469;-67
2022/11/30 01:50:26;;;;;;;26.63;16.63;;;4.70;96.20;;;4.38;87.99;98294.47;5026302;28;20477;-67
2022/11/30 01:52:56;;;;;;;20.43;15.20;;;4.60;97.50;;;4.29;87.66;98297.34;5024671;28;20480;-69
2022/11/30 01:55:28;;;;;;;20.40;14.63;;;4.60;96.70;;;4.31;87.66;98293.50;5025382;28;20458;-67
2022/11/30 01:58:01;;;;;;;19.30;16.00;;;4.60;97.00;;;4.37;87.44;98289.31;5023653;28;20450;-68
2022/11/30 02:00:28;;;;;;;21.63;14.57;;;4.60;97.30;;;4.45;86.99;98281.28;5018765;28;20884;-68
2022/11/30 02:03:01;;;;;;;21.23;15.90;;;4.60;97.20;;;4.44;87.24;98292.16;5024992;28;20533;-67
2022/11/30 02:05:29;;;;;;;20.50;15.03;;;4.60;97.20;;;3.69;86.78;98159.34;5022164;28;20452;-66
2022/11/30 02:07:57;;;;;;;20.80;15.43;;;4.70;97.60;;;4.56;87.10;98295.31;5034907;28;20450;-67
2022/11/30 02:10:28;;;;;;;22.00;15.93;;;4.70;97.60;;;4.59;86.76;98294.97;5027020;28;20473;-67
2022/11/30 02:13:26;;;;;;;20.27;15.60;;;4.70;96.60;;;4.46;87.61;98290.97;5024556;28;20485;-69
2022/11/30 02:16:07;;;;;;;19.30;14.93;;;4.70;97.00;;;4.29;87.43;98297.34;5021634;28;20449;-67
2022/11/30 02:18:47;;;;;;;19.33;14.63;;;4.60;95.90;;;4.15;87.86;98294.34;5022099;28;20465;-66
2022/11/30 02:21:22;;;;;;;21.73;14.43;;;4.60;95.70;;;4.26;87.44;98293.19;5027396;28;20520;-67
2022/11/30 02:24:46;;;;;;;18.50;13.97;;;4.60;96.40;;;4.24;86.88;98288.00;5035221;28;20466;-67
2022/11/30 02:27:26;;;;;;;18.40;14.47;;;4.60;96.40;;;4.15;86.86;98305.03;5019090;28;20453;-66
2022/11/30 02:30:01;;;;;;;20.37;15.03;;;4.50;95.90;;;4.12;87.01;98305.38;5026422;28;20969;-67
2022/11/30 02:32:34;;;;;;;19.83;14.80;;;4.50;96.00;;;4.24;87.64;98308.53;5027527;28;20940;-66
2022/11/30 02:35:04;;;;;;;19.40;14.83;;;4.50;96.80;;;4.25;87.37;98311.06;5018085;28;20449;-66
2022/11/30 02:37:34;;;;;;;19.00;15.17;;;4.50;97.10;;;4.26;88.07;98311.91;5040506;28;20461;-67
2022/11/30 02:40:01;;;;;;;19.30;14.30;;;4.50;96.70;;;4.30;87.45;98301.69;5028194;28;20473;-67
2022/11/30 02:42:28;;;;;;;18.53;13.70;;;4.50;97.10;;;4.19;86.94;98303.72;5039104;28;20451;-66
2022/11/30 02:44:56;;;;;;;17.10;13.73;;;4.60;95.80;;;3.97;86.81;98287.31;5028234;28;20469;-67
2022/11/30 02:47:29;;;;;;;19.10;15.03;;;4.50;95.70;;;4.28;87.11;98314.41;5024649;28;20476;-67
2022/11/30 02:50:01;;;;;;;18.70;14.13;;;4.50;96.80;;;4.24;87.32;98309.38;5029433;28;20501;-67
2022/11/30 02:52:30;;;;;;;18.93;13.90;;;4.50;96.80;;;4.25;87.75;98311.06;5024775;28;20974;-66
2022/11/30 02:55:01;;;;;;;21.13;14.00;;;4.50;97.10;;;4.49;86.13;98312.06;5025797;28;20974;-67
2022/11/30 02:57:28;;;;;;;18.87;13.77;;;4.60;97.00;;;4.43;86.72;98307.34;5044075;28;20461;-67
2022/11/30 02:59:57;;;;;;;17.13;13.70;;;4.60;96.40;;;4.28;86.99;98307.22;5024386;28;20571;-67
2022/11/30 03:02:24;;;;;;;17.77;13.40;;;4.50;95.80;;;4.14;86.40;98284.63;5028280;28;20946;-68
2022/11/30 03:04:52;;;;;;;19.40;14.30;;;4.60;95.10;;;4.24;86.53;98300.50;5025523;28;20462;-68
2022/11/30 03:07:19;;;;;;;16.90;13.10;;;4.50;95.30;;;4.19;87.16;98310.88;5028649;28;20503;-68
2022/11/30 03:09:46;;;;;;;19.20;13.70;;;4.50;95.10;;;4.16;86.56;98296.00;5026534;28;20442;-66
2022/11/30 03:12:13;;;;;;;17.70;13.37;;;4.50;95.50;;;3.86;86.70;98262.75;5041028;28;20474;-67
2022/11/30 03:14:40;;;;;;;19.83;14.70;;;4.40;95.50;;;4.00;86.39;98314.72;5037109;28;20948;-69
2022/11/30 03:17:09;;;;;;;22.47;15.00;;;4.40;95.10;;;4.08;87.02;98322.75;5027643;28;20458;-68
2022/11/30 03:19:36;;;;;;;19.97;13.83;;;4.40;96.00;;;4.05;87.02;98321.25;5027030;28;20463;-67
2022/11/30 03:22:04;;;;;;;18.53;13.57;;;4.30;96.30;;;4.08;86.51;98320.91;5025286;28;20489;-67
2022/11/30 03:24:31;;;;;;;22.90;15.93;;;4.40;95.50;;;3.96;87.80;98325.75;5028965;28;20458;-67
2022/11/30 03:26:58;;;;;;;20.00;14.43;;;4.40;96.10;;;4.19;87.81;98324.25;5018409;28;20481;-68
2022/11/30 03:29:25;;;;;;;21.67;15.40;;;4.40;97.30;;;4.20;87.18;98324.09;5017647;28;20508;-67
2022/11/30 03:31:53;;;;;;;20.20;13.93;;;4.40;96.60;;;4.25;86.83;98316.41;5031048;28;20569;-67
2022/11/30 03:34:25;;;;;;;21.23;14.57;;;4.50;96.80;;;4.17;87.35;98318.25;5028631;28;20483;-66
2022/11/30 03:36:52;;;;;;;21.83;14.50;;;4.50;96.00;;;4.18;86.60;98326.13;5021685;28;20571;-68
2022/11/30 03:39:19;;;;;;;23.20;14.70;;;4.50;95.80;;;4.21;86.78;98325.78;5034118;28;20821;-66
2022/11/30 03:41:46;;;;;;;20.43;14.80;;;4.50;96.10;;;4.12;87.34;98329.44;5044419;28;20949;-67
2022/11/30 03:44:14;;;;;;;18.70;13.67;;;4.40;96.30;;;4.00;87.69;98328.94;5020913;28;20796;-67
2022/11/30 03:46:41;;;;;;;22.63;16.17;;;4.40;95.80;;;4.07;87.08;98318.41;5028828;28;20465;-67
2022/11/30 03:49:08;;;;;;;16.10;12.67;;;4.40;96.10;;;4.13;86.75;98323.09;5026936;28;20465;-68
2022/11/30 03:51:37;;;;;;;19.67;14.07;;;4.40;96.60;;;4.11;87.07;98319.75;5029358;28;20450;-68
2022/11/30 03:54:04;;;;;;;20.83;14.57;;;4.40;96.60;;;4.22;86.86;98315.91;5021694;28;20460;-69
2022/11/30 03:56:31;;;;;;;21.47;15.67;;;4.40;96.90;;;4.22;86.89;98327.44;5027859;28;20453;-68
2022/11/30 03:58:59;;;;;;;21.10;15.23;;;4.40;96.60;;;3.87;87.30;98292.00;5027970;28;20489;-67
2022/11/30 04:01:26;;;;;;;21.40;15.70;;;4.40;95.80;;;3.90;87.21;98323.75;5027238;28;20865;-67
2022/11/30 04:03:54;;;;;;;23.10;15.13;;;4.30;96.00;;;4.02;88.11;98318.91;5036413;28;20460;-68
2022/11/30 04:06:22;;;;;;;20.53;14.93;;;4.30;97.00;;;4.05;87.20;98323.09;5028913;28;20441;-65
2022/11/30 04:08:51;;;;;;;22.40;15.53;;;4.30;96.70;;;4.15;86.46;98321.06;5030369;28;20450;-68
2022/11/30 04:11:18;;;;;;;22.17;14.77;;;4.40;96.20;;;4.02;86.84;98299.34;5029856;28;20454;-68
2022/11/30 04:13:45;;;;;;;22.33;14.60;;;4.40;95.90;;;4.08;86.80;98330.78;5039804;28;20473;-67
2022/11/30 04:16:12;;;;;;;20.60;15.23;;;4.30;95.90;;;3.90;87.23;98315.72;5023368;28;20466;-67
2022/11/30 04:18:40;;;;;;;22.77;15.53;;;4.30;96.20;;;3.95;87.84;98321.41;5030766;28;20537;-67
2022/11/30 04:21:08;;;;;;;26.13;16.70;;;4.30;96.50;;;3.92;87.08;98316.41;5029919;28;20924;-68
2022/11/30 04:23:39;;;;;;;23.83;16.27;;;4.30;95.90;;;3.95;86.91;98326.75;5029376;28;20441;-67
2022/11/30 04:26:12;;;;;;;25.43;17.97;;;4.30;95.50;;;4.01;86.69;98324.41;5029868;28;20917;-68
2022/11/30 04:28:40;;;;;;;22.37;15.93;;;4.30;95.80;;;3.93;86.98;98328.75;5029393;28;20488;-67
2022/11/30 04:31:08;;;;;;;21.73;15.53;;;4.30;95.40;;;3.97;87.58;98329.28;5044727;28;20500;-67
2022/11/30 04:33:35;;;;;;;25.50;17.10;;;4.30;95.60;;;3.94;87.58;98337.59;5027952;28;21080;-68
2022/11/30 04:36:05;;;;;;;22.90;15.00;;;4.30;96.30;;;4.11;86.57;98333.13;5025095;28;20449;-67
2022/11/30 04:38:34;;;;;;;25.70;17.00;;;4.30;96.10;;;4.13;87.03;98336.47;5029748;28;20472;-68
2022/11/30 04:41:08;;;;;;;25.50;16.50;;;4.40;96.30;;;3.95;87.50;98323.25;5024066;28;20450;-68
2022/11/30 04:43:36;;;;;;;25.83;17.80;;;4.30;97.00;;;4.22;86.17;98331.94;5034753;28;21135;-67
2022/11/30 04:46:04;;;;;;;23.10;16.17;;;4.40;96.40;;;4.27;85.83;98332.31;5027228;28;20946;-66
2022/11/30 04:48:31;;;;;;;27.93;17.90;;;4.40;95.40;;;4.14;85.77;98315.91;5025541;28;20552;-68
2022/11/30 04:51:01;;;;;;;24.77;16.40;;;4.40;94.90;;;4.21;85.54;98325.78;5019318;28;20458;-68
2022/11/30 04:53:28;;;;;;;24.57;16.10;;;4.40;95.10;;;4.31;85.24;98327.44;5023188;28;21070;-67
2022/11/30 04:55:55;;;;;;;26.20;17.47;;;4.50;94.70;;;4.06;85.32;98322.09;5026440;28;20464;-68
2022/11/30 04:58:24;;;;;;;26.17;18.03;;;4.40;94.50;;;4.29;85.31;98329.44;5020739;28;20775;-68
2022/11/30 05:00:54;;;;;;;27.17;18.60;;;4.40;94.70;;;4.19;85.18;98333.13;5040685;28;20460;-69
2022/11/30 05:03:22;;;;;;;25.67;17.53;;;4.30;94.90;;;4.09;85.19;98329.78;5025002;28;20456;-68
2022/11/30 05:05:49;;;;;;;26.57;17.40;;;4.30;94.90;;;4.22;84.72;98340.81;5040933;28;20462;-67
2022/11/30 05:08:16;;;;;;;26.50;18.90;;;4.30;94.20;;;4.15;84.82;98339.78;5025296;28;20937;-68
2022/11/30 05:10:43;;;;;;;29.27;18.93;;;4.30;94.00;;;4.08;85.49;98341.47;5024340;28;20468;-69
2022/11/30 05:13:10;;;;;;;29.77;19.03;;;4.30;94.20;;;3.93;85.42;98350.16;5019791;28;20503;-69
2022/11/30 05:15:39;;;;;;;28.70;19.10;;;4.20;93.40;;;3.84;85.79;98351.13;5024721;28;21049;-68
2022/11/30 05:18:06;;;;;;;28.20;18.37;;;4.20;93.90;;;3.04;85.33;98227.69;5022851;28;20453;-67
2022/11/30 05:20:33;;;;;;;31.23;20.07;;;4.10;93.90;;;3.67;85.68;98353.75;5025599;28;20473;-67
2022/11/30 05:23:00;;;;;;;31.87;20.07;;;4.00;94.30;;;3.13;86.40;98270.47;5021306;28;20457;-67
2022/11/30 05:25:27;;;;;;;30.53;19.90;;;4.00;94.40;;;3.57;85.91;98355.75;5019730;28;20530;-66
2022/11/30 05:27:54;;;;;;;30.67;20.33;;;3.90;94.30;;;3.60;85.79;98350.06;5039546;28;20910;-67
2022/11/30 05:30:22;;;;;;;28.30;19.30;;;3.90;94.60;;;3.56;85.88;98343.38;5041201;28;20942;-67
2022/11/30 05:32:52;;;;;;;31.77;21.43;;;3.90;94.70;;;3.47;86.18;98345.16;5017620;28;20476;-68
2022/11/30 05:35:19;;;;;;;34.73;22.53;;;3.90;94.40;;;3.15;86.59;98289.81;5020154;28;20835;-68
2022/11/30 05:37:47;;;;;;;35.73;20.90;;;3.80;95.00;;;3.42;86.30;98338.66;5019568;28;20460;-68
2022/11/30 05:40:14;;;;;;;30.90;19.00;;;3.80;95.00;;;3.61;86.93;98343.72;5017524;28;20461;-68
2022/11/30 05:42:41;;;;;;;32.73;21.37;;;3.80;96.20;;;3.10;86.17;98284.97;5022555;28;20464;-66
2022/11/30 05:45:10;;;;;;;30.73;19.77;;;3.80;95.70;;;3.59;86.07;98353.75;5023637;28;20456;-65
2022/11/30 05:47:37;;;;;;;35.30;22.00;;;3.80;95.50;;;3.57;85.51;98357.56;5034129;28;20548;-65
2022/11/30 05:50:08;;;;;;;37.37;22.10;;;3.90;94.10;;;3.16;86.98;98310.19;5022373;28;20563;-66
2022/11/30 05:52:36;;;;;;;31.97;20.17;;;3.80;95.30;;;3.53;86.27;98355.22;5024364;28;20511;-66
2022/11/30 05:55:03;;;;;;;37.03;22.27;;;3.80;94.80;;;3.62;85.64;98366.78;5028812;28;20489;-65
2022/11/30 05:57:31;;;;;;;34.50;21.40;;;3.80;95.00;;;3.62;85.89;98361.44;5028913;28;20471;-66
2022/11/30 05:59:58;;;;;;;31.40;20.60;;;3.90;94.60;;;3.74;86.14;98364.63;5028538;28;20478;-66
2022/11/30 06:02:25;;;;;;;32.73;22.20;;;3.90;95.50;;;3.63;86.63;98352.41;5039612;28;20463;-66
2022/11/30 06:04:52;;;;;;;35.93;21.03;;;3.80;95.70;;;3.75;86.03;98373.50;5020734;28;20462;-64
2022/11/30 06:07:21;;;;;;;32.53;20.83;;;3.90;96.00;;;3.74;86.14;98364.63;5024593;28;20518;-66
2022/11/30 06:09:48;;;;;;;33.17;21.13;;;3.90;95.90;;;3.71;85.75;98372.97;5025462;28;20465;-65
2022/11/30 06:12:15;;;;;;;34.27;20.73;;;3.90;96.00;;;3.53;86.16;98365.91;5024466;28;20492;-66
2022/11/30 06:14:42;;;;;;;35.97;21.80;;;3.80;95.40;;;3.45;86.57;98367.72;5017243;28;20458;-67
2022/11/30 06:17:11;;;;;;;35.37;21.20;;;3.80;95.60;;;3.67;86.56;98367.13;5022816;28;20453;-72
2022/11/30 06:19:38;;;;;;;32.73;21.50;;;3.90;96.10;;;3.61;85.60;98351.75;5026498;28;21026;-65
2022/11/30 06:22:06;;;;;;;32.63;19.83;;;3.90;95.70;;;3.63;85.60;98376.47;5020027;28;20467;-72
2022/11/30 06:24:34;;;;;;;35.60;21.47;;;3.90;95.20;;;3.52;86.08;98369.59;5022604;28;20470;-71
2022/11/30 06:27:03;;;;;;;38.83;21.40;;;3.90;95.40;;;3.82;86.02;98375.38;5025178;28;20449;-72
2022/11/30 06:29:30;;;;;;;34.37;20.00;;;4.00;95.20;;;3.87;85.49;98374.03;5026279;28;20572;-72
2022/11/30 06:31:57;;;;;;;31.50;19.93;;;4.00;95.60;;;3.97;84.56;98378.22;5025178;28;20468;-71
2022/11/30 06:34:25;;;;;;;32.23;21.43;;;4.00;95.30;;;4.01;85.17;98376.06;5024258;28;20495;-73
2022/11/30 06:36:52;;;;;;;30.50;19.77;;;4.10;94.80;;;3.95;84.93;98368.72;5026231;28;20463;-72
2022/11/30 06:39:19;;;;;;;35.13;22.73;;;4.10;94.60;;;3.91;85.28;98368.19;5023779;28;20456;-73
2022/11/30 06:41:48;;;;;;;34.37;21.83;;;4.10;94.30;;;3.78;85.31;98367.81;5041171;28;20549;-72
2022/11/30 06:44:15;;;;;;;32.03;20.03;;;4.10;93.60;;;3.91;84.38;98368.19;5020927;28;20567;-73
2022/11/30 06:46:43;;;;;;;34.37;21.37;;;4.00;93.90;;;3.89;84.65;98370.19;5023009;28;22026;-72
2022/11/30 06:49:10;;;;;;;34.33;21.30;;;4.00;93.40;;;3.92;84.31;98363.66;5026289;28;20491;-73
2022/11/30 06:51:38;;;;;;;29.80;20.30;;;4.10;94.00;;;3.99;83.85;98371.88;5025524;28;20480;-72
2022/11/30 06:54:06;;;;;;;29.30;20.23;;;4.10;93.50;;;4.05;83.85;98371.22;5032774;28;20481;-70
2022/11/30 06:56:33;;;;;;;32.97;20.77;;;4.10;93.80;;;4.13;83.43;98371.22;5021051;28;21238;-73
2022/11/30 06:59:01;;;;;;;32.90;20.17;;;4.20;94.00;;;4.22;83.30;98372.91;5038932;28;20484;-72
2022/11/30 07:01:28;;;;;;;31.13;20.97;;;4.20;93.70;;;4.10;83.51;98379.59;5023564;28;20849;-71
2022/11/30 07:03:57;;;;;;;36.63;21.17;;;4.20;92.90;;;3.57;84.08;98318.34;5017337;28;20464;-73
2022/11/30 07:06:24;;;;;;;35.63;22.37;;;4.20;93.20;;;3.83;84.52;98393.06;5025663;28;20467;-70
2022/11/30 07:08:52;;;;;;;34.03;20.53;;;4.20;92.50;;;3.94;83.53;98389.25;5025660;28;20957;-72
2022/11/30 07:11:19;;;;;;;39.10;22.90;;;4.20;92.60;;;3.74;84.47;98393.22;5027255;28;20514;-73
2022/11/30 07:13:46;;;;;;;32.40;20.33;;;4.10;92.50;;;3.78;84.29;98406.06;5036746;28;20848;-72
2022/11/30 07:16:15;;;;;;;32.90;22.50;;;4.10;92.80;;;3.83;84.61;98406.44;5023368;28;20469;-71
2022/11/30 07:18:42;;;;;;;38.07;21.43;;;4.10;93.40;;;3.87;83.90;98393.59;5023722;28;20591;-72
2022/11/30 07:21:10;;;;;;;34.93;21.40;;;4.20;93.20;;;4.02;84.27;98401.78;5028570;28;20469;-75
2022/11/30 07:26:23;;;;;;;34.33;21.10;;;4.30;93.30;;;4.36;85.50;98392.00;5023222;28;20973;-72
2022/11/30 07:28:53;;;;;;;34.47;20.60;;;4.40;95.00;;;4.24;82.45;98400.34;5021575;28;20454;-72
2022/11/30 07:31:25;;;;;;;36.10;20.07;;;4.40;92.00;;;4.34;81.82;98399.34;5017175;28;21351;-72
2022/11/30 07:33:52;;;;;;;36.13;21.83;;;4.40;91.70;;;4.21;82.78;98391.78;5017820;28;20491;-71
2022/11/30 07:36:23;;;;;;;36.63;21.77;;;4.50;91.60;;;4.07;82.43;98403.97;5013519;28;20472;-72
2022/11/30 07:38:50;;;;;;;29.33;19.20;;;4.40;90.50;;;3.96;82.57;98397.13;5030619;28;20453;-71
2022/11/30 07:41:17;;;;;;;37.77;21.70;;;4.30;90.70;;;3.88;83.34;98400.59;5017786;28;20889;-72
2022/11/30 07:43:44;;;;;;;36.33;20.10;;;4.30;91.10;;;3.95;83.18;98396.25;5015663;28;20485;-71
2022/11/30 07:46:14;;;;;;;33.37;20.37;;;4.30;91.30;;;3.80;83.36;98403.25;5030452;28;20452;-72
2022/11/30 07:48:44;;;;;;;33.23;20.40;;;4.20;91.10;;;3.82;83.64;98406.59;5019444;28;20497;-73
2022/11/30 07:51:15;;;;;;;31.30;20.53;;;4.20;91.10;;;3.75;84.02;98406.41;5020328;28;20451;-71
2022/11/30 07:53:42;;;;;;;34.93;20.33;;;4.20;91.30;;;3.88;83.49;98408.63;5018118;28;20469;-71
2022/11/30 07:56:13;;;;;;;37.07;22.27;;;4.20;91.30;;;3.90;83.51;98409.31;5017927;28;20442;-71
2022/11/30 07:58:41;;;;;;;37.73;21.00;;;4.20;91.40;;;4.01;82.27;98380.56;5021453;28;20973;-72
2022/11/30 08:01:11;;;;;;;33.47;19.80;;;4.30;91.40;;;4.15;82.19;98417.34;5014548;28;20493;-72
2022/11/30 08:03:38;;;;;;;39.03;23.07;;;4.40;91.00;;;4.05;82.88;98412.16;5021229;28;20472;-72
2022/11/30 08:06:10;;;;;;;33.87;20.17;;;4.30;91.20;;;4.22;82.21;98410.38;5037959;28;20463;-72
2022/11/30 08:08:40;;;;;;;36.70;21.87;;;4.40;90.80;;;4.09;81.99;98415.34;5021851;28;20469;-71
2022/11/30 08:11:10;;;;;;;34.37;21.60;;;4.40;90.50;;;4.01;82.34;98404.63;5038309;28;20476;-71
2022/11/30 08:13:38;;;;;;;33.90;19.90;;;4.30;90.70;;;3.95;82.08;98400.78;5037289;28;20486;-72
2022/11/30 08:16:08;;;;;;;32.73;21.07;;;4.30;90.50;;;4.07;82.15;98401.31;5017995;28;20469;-72
2022/11/30 08:18:36;;;;;;;37.67;20.40;;;4.40;90.60;;;4.27;81.66;98393.81;5018576;28;20477;-72
2022/11/30 08:21:08;;;;;;;32.30;19.83;;;4.40;90.50;;;4.30;80.42;98403.34;5015762;28;20805;-71
2022/11/30 08:23:39;;;;;;;34.07;19.63;;;4.60;89.50;;;4.10;81.53;98403.66;5038135;28;20489;-72
2022/11/30 08:26:08;;;;;;;32.10;20.50;;;4.50;90.10;;;4.09;81.93;98418.88;5020265;28;20466;-73
2022/11/30 08:28:36;;;;;;;33.83;20.90;;;4.40;90.40;;;4.11;81.74;98416.03;5019380;28;20465;-73
2022/11/30 08:31:06;;;;;;;35.17;20.63;;;4.50;90.00;;;4.06;81.84;98410.34;5020746;28;20922;-70
2022/11/30 08:33:36;;;;;;;32.07;19.60;;;4.50;90.20;;;4.17;81.43;98426.09;5021822;28;20505;-69
2022/11/30 08:36:10;;;;;;;31.43;18.50;;;4.50;90.30;;;4.47;80.27;98426.44;5019746;28;20468;-70
2022/11/30 08:38:40;;;;;;;33.43;20.43;;;4.60;90.10;;;4.03;80.22;98370.56;5037400;28;20449;-69
2022/11/30 08:41:09;;;;;;;30.13;17.90;;;4.60;89.80;;;4.18;80.54;98433.09;5033504;28;20442;-69
2022/11/30 08:43:37;;;;;;;35.47;19.63;;;4.50;89.00;;;4.33;80.93;98435.13;5011757;28;20446;-69
2022/11/30 08:46:07;;;;;;;31.13;19.23;;;4.50;90.20;;;4.15;81.35;98433.41;5030305;28;20994;-69
2022/11/30 08:48:35;;;;;;;33.00;20.37;;;4.50;89.20;;;4.08;81.26;98445.78;5022701;28;20465;-69
2022/11/30 08:51:07;;;;;;;30.40;18.53;;;4.50;89.60;;;4.01;81.52;98434.03;5020152;28;20490;-71
2022/11/30 08:53:35;;;;;;;35.30;20.00;;;4.40;89.60;;;4.14;81.17;98426.38;5021684;28;20523;-70
2022/11/30 08:56:05;;;;;;;31.70;20.10;;;4.40;90.30;;;4.15;80.69;98444.09;5015715;28;20547;-70
2022/11/30 08:58:36;;;;;;;37.17;21.77;;;4.50;89.00;;;3.92;81.35;98455.41;5033547;28;20454;-70
2022/11/30 09:01:08;;;;;;;40.13;21.30;;;4.40;89.40;;;3.97;82.03;98463.78;5034429;28;20465;-69
2022/11/30 09:03:36;;;;;;;39.93;22.20;;;4.30;90.20;;;4.10;81.42;98473.19;5035839;28;20544;-70
2022/11/30 09:06:09;;;;;;;37.07;20.67;;;4.40;89.90;;;4.14;81.29;98471.84;5018882;28;20469;-69
2022/11/30 09:08:37;;;;;;;38.43;22.17;;;4.40;90.00;;;3.94;81.69;98477.47;5020100;28;20458;-69
2022/11/30 09:11:12;;;;;;;40.40;22.80;;;4.30;89.70;;;4.07;81.80;98474.34;5022920;28;20457;-71
2022/11/30 09:13:40;;;;;;;40.57;22.20;;;4.40;89.80;;;4.15;81.13;98470.84;5019192;28;20510;-70
2022/11/30 09:16:08;;;;;;;40.73;20.80;;;4.40;90.10;;;4.24;80.93;98485.94;5017895;28;20473;-70
2022/11/30 09:18:36;;;;;;;35.20;20.27;;;4.50;89.50;;;4.10;80.27;98471.38;5019134;28;20480;-69
2022/11/30 09:21:08;;;;;;;36.37;20.93;;;4.50;87.70;;;3.79;80.97;98476.41;5016410;28;20472;-70
2022/11/30 09:23:36;;;;;;;35.20;20.80;;;4.30;87.90;;;3.92;80.93;98487.50;5019408;28;20686;-69
2022/11/30 09:26:07;;;;;;;35.20;21.13;;;4.30;88.50;;;3.96;80.60;98470.13;5017222;28;20453;-69
2022/11/30 09:28:35;;;;;;;35.20;21.90;;;4.30;88.50;;;4.20;79.82;98473.03;5031329;28;20468;-70
2022/11/30 09:31:06;;;;;;;35.50;19.90;;;4.40;88.50;;;4.36;78.66;98466.91;5021165;28;20551;-71
2022/11/30 09:33:34;;;;;;;32.83;20.50;;;4.50;87.40;;;4.41;78.77;98463.75;5034143;28;20478;-71
2022/11/30 09:36:04;;;;;;;31.07;19.70;;;4.60;86.70;;;4.37;77.50;98468.56;5020180;28;20469;-71
2022/11/30 09:38:33;;;;;;;29.43;18.80;;;4.60;85.40;;;4.31;77.31;98466.53;5020595;28;20461;-69
2022/11/30 09:41:04;;;;;;;30.73;17.30;;;4.60;84.70;;;4.10;77.20;98467.84;5016570;28;20461;-70
2022/11/30 09:43:41;;;;;;;28.20;17.20;;;4.50;84.30;;;4.28;77.25;98464.19;5019326;28;20621;-70
2022/11/30 09:46:09;;;;;;;25.73;17.13;;;4.50;84.50;;;4.24;77.33;98477.91;5021589;28;20477;-71
2022/11/30 09:48:54;;;;;;;25.73;16.47;;;4.50;84.40;;;4.25;76.67;98463.53;5017453;28;22179;-71
2022/11/30 09:51:28;;;;;;;31.30;17.63;;;4.50;84.10;;;4.28;76.90;98466.88;5013821;28;20464;-70
2022/11/30 09:54:01;;;;;;;28.73;16.73;;;4.60;83.90;;;4.33;76.10;98472.59;5032590;28;20686;-70
2022/11/30 09:56:33;;;;;;;27.17;18.23;;;4.60;83.70;;;4.42;76.34;98476.13;5020699;28;20466;-72
2022/11/30 09:59:13;;;;;;;27.53;17.33;;;4.60;83.70;;;4.32;76.48;98462.84;5020147;28;20528;-71
2022/11/30 10:01:41;;;;;;;31.13;17.80;;;4.70;83.60;;;4.17;77.02;98479.56;5018930;28;20468;-69
2022/11/30 10:04:22;;;;;;;28.50;17.27;;;4.60;83.30;;;4.13;76.57;98472.84;5018504;28;20567;-69
2022/11/30 10:07:02;;;;;;;28.00;18.30;;;4.50;83.60;;;4.19;76.44;98471.38;5021738;28;20577;-71
2022/11/30 10:09:45;;;;;;;25.77;17.20;;;4.50;83.60;;;4.12;76.92;98468.50;5020441;28;20469;-71
2022/11/30 10:12:20;;;;;;;27.67;17.03;;;4.50;83.50;;;4.36;76.25;98472.25;5022048;28;20462;-70
2022/11/30 10:15:20;;;;;;;26.40;17.57;;;4.60;83.50;;;4.39;75.78;98453.19;5021409;28;20480;-70
2022/11/30 10:17:54;;;;;;;23.80;16.50;;;4.60;83.10;;;4.45;75.42;98454.38;5022952;28;20503;-71
2022/11/30 10:20:48;;;;;;;29.33;18.50;;;4.70;83.00;;;4.02;76.19;98470.47;5022204;28;20473;-68
2022/11/30 10:23:39;;;;;;;28.83;17.93;;;4.50;82.10;;;4.18;75.61;98464.34;5033153;28;21007;-70
2022/11/30 10:26:12;;;;;;;28.73;18.20;;;4.50;82.70;;;3.94;75.47;98471.28;5019391;28;20460;-69
2022/11/30 10:28:50;;;;;;;30.57;18.13;;;4.40;82.30;;;3.87;76.29;98468.44;5019849;28;20479;-69
2022/11/30 10:31:19;;;;;;;31.07;18.67;;;4.30;82.70;;;4.05;76.23;98470.16;5018019;28;20458;-69
2022/11/30 10:33:49;;;;;;;26.33;16.67;;;4.30;83.00;;;3.94;75.93;98469.47;5019454;28;20492;-70